• Join FlightAware (Why Join?)
  • Login
  • US Flag 
08:55AM EDT


 

Airport Tracker/Info


-or-


 

Live Flight TrackerFlight Track Log ✈ SWA1802 ✈ 21-Jul-2013 ✈ KMDW - KTUL

Flight Track Log - Related Links

Times and Time Zones

All times are in EDT time to prevent confusion due to time zone crossing. See the SWA1802 flight status page for this flight to view local times or setup timezone preferences in your user account.

Time Position Orientation Groundspeed Altitude Reporting Facility
EDT Latitude Longitude Course Direction KTS MPH feet Rate Location/Type
07:53PM 41.7700 -87.7700 219° Southwest 157 181 2,000  Level FlightAware
07:54PM 41.7630 -87.7780 220° Southwest 175 201 2,300 1,500 Climbing FlightAware
07:54PM 41.7400 -87.8020 218° Southwest 222 255 3,100 2,400 Climbing FlightAware
07:55PM 41.7170 -87.8270 219° Southwest 227 261 4,700 2,760 Climbing FlightAware
07:55PM 41.6930 -87.8540 220° Southwest 261 300 5,700 2,640 Climbing FlightAware
07:55PM 41.6670 -87.8840 221° Southwest 271 312 7,200 3,420 Climbing FlightAware
07:56PM 41.6430 -87.9100 219° Southwest 273 314 8,700 3,720 Climbing FlightAware
07:56PM 41.6280 -87.9270 220° Southwest 273 314 9,700 3,060 Climbing FlightAware
07:57PM 41.5840 -87.9770 220° Southwest 288 331 11,800 1,680 Climbing FlightAware
07:58PM 41.5430 -88.0230 220° Southwest 293 337 12,100 180 Climbing FlightAware
07:58PM 41.5040 -88.0660 220° Southwest 308 354 12,100  Level FlightAware
07:59PM 41.4610 -88.1130 219° Southwest 306 352 12,100 1,140 Level FlightAware
08:00PM 41.4110 -88.1680 220° Southwest 321 369 13,700 1,560 Climbing FlightAware
08:00PM 41.3680 -88.1970 207° Southwest 327 376 14,100 360 Climbing FlightAware
08:01PM 41.3040 -88.2250 198° South 324 373 14,200 1,200 Climbing FlightAware
08:02PM 41.2410 -88.2540 199° South 338 389 15,900 2,580 Climbing FlightAware
08:02PM 41.2060 -88.2700 199° South 339 390 17,100 2,640 Climbing FlightAware
08:03PM 41.1480 -88.2960 199° South 349 402 18,700 1,440 Climbing FlightAware
08:03PM 41.0860 -88.3240 199° South 353 406 19,000 180 Climbing FlightAware
08:04PM 41.0230 -88.3520 199° South 351 404 19,000 300 Level FlightAware
08:05PM 40.9530 -88.3840 199° South 353 406 19,500 1,380 Climbing FlightAware
08:05PM 40.8900 -88.4120 199° South 357 411 21,000 2,040 Climbing FlightAware
08:06PM 40.8240 -88.4410 198° South 368 423 22,300 1,920 Climbing FlightAware
08:07PM 40.7620 -88.4690 199° South 373 429 23,600 1,920 Climbing FlightAware
08:07PM 40.6860 -88.5030 199° South 383 441 25,000 960 Climbing FlightAware
08:08PM 40.6150 -88.5350 199° South 412 474 25,000  Level FlightAware
08:09PM 40.5350 -88.5700 198° South 425 489 25,000 600 Level FlightAware
08:10PM 40.4560 -88.6050 199° South 425 489 25,900 1,380 Climbing FlightAware
08:10PM 40.3760 -88.6410 199° South 431 496 27,000 600 Climbing FlightAware
08:14PM 40.0520 -88.8450 206° Southwest 442 509 28,400 900 Climbing FlightAware
08:14PM 39.9540 -88.9330 215° Southwest 434 499 30,900 2,520 Climbing FlightAware
08:15PM 39.8620 -89.0230 217° Southwest 426 490 32,400 1,800 Climbing FlightAware
08:16PM 39.8120 -89.0950 228° Southwest 421 484 33,400 1,140 Climbing FlightAware
08:17PM 39.7570 -89.1770 229° Southwest 420 483 34,000 360 Climbing FlightAware
08:17PM 39.7020 -89.2600 229° Southwest 420 483 34,000  Level FlightAware
08:18PM 39.6530 -89.3330 229° Southwest 418 481 34,000 300 Level FlightAware
08:19PM 39.6000 -89.4110 229° Southwest 418 481 34,400 720 Climbing FlightAware
08:19PM 39.5520 -89.4820 229° Southwest 413 475 35,000 420 Climbing FlightAware
08:20PM 39.4970 -89.5620 228° Southwest 411 473 35,000  Level FlightAware
08:21PM 39.4450 -89.6390 229° Southwest 410 472 35,000  Level FlightAware
08:21PM 39.4010 -89.7030 228° Southwest 410 472 35,000  Level FlightAware
08:22PM 39.3590 -89.7820 236° Southwest 410 472 35,000  Level FlightAware
08:23PM 39.3160 -89.8630 236° Southwest 411 473 35,000 540 Level FlightAware
08:23PM 39.2770 -89.9360 235° Southwest 408 470 35,700 720 Climbing FlightAware
08:24PM 39.2320 -90.0190 235° Southwest 408 470 36,000 180 Climbing FlightAware
08:25PM 39.1880 -90.1000 235° Southwest 408 470 36,000 60 Level FlightAware
08:25PM 39.1420 -90.1870 236° Southwest 410 472 36,100 420 Climbing FlightAware
08:26PM 39.1020 -90.2610 235° Southwest 410 472 36,600 900 Climbing FlightAware
08:27PM 39.0510 -90.3540 235° Southwest 409 471 37,400 1,020 Climbing FlightAware
08:27PM 39.0140 -90.4230 235° Southwest 407 468 38,000 420 Climbing FlightAware
08:28PM 38.9670 -90.5070 234° Southwest 407 468 38,000  Level FlightAware
08:29PM 38.9330 -90.5670 234° Southwest 407 468 38,000  Level FlightAware
08:29PM 38.8880 -90.6460 234° Southwest 407 468 38,000  Level FlightAware
08:30PM 38.8370 -90.7460 237° Southwest 407 468 38,000  Level FlightAware
08:31PM 38.7790 -90.8500 234° Southwest 407 468 38,000  Level FlightAware
08:32PM 38.7450 -90.9090 234° Southwest 407 468 38,000  Level FlightAware
08:32PM 38.7110 -90.9690 234° Southwest 407 468 38,000  Level FlightAware
08:33PM 38.6660 -91.0490 234° Southwest 407 468 38,000  Level FlightAware
08:34PM 38.6030 -91.1680 236° Southwest 408 470 38,000  Level FlightAware
08:34PM 38.5690 -91.2280 234° Southwest 408 470 38,000  Level FlightAware
08:35PM 38.5000 -91.3520 235° Southwest 407 468 38,000  Level FlightAware
08:36PM 38.4650 -91.4130 234° Southwest 407 468 38,000  Level FlightAware
08:37PM 38.4200 -91.4930 234° Southwest 407 468 38,000  Level FlightAware
08:37PM 38.3620 -91.5990 235° Southwest 404 465 38,000  Level FlightAware
08:38PM 38.3250 -91.6630 234° Southwest 404 465 38,000  Level FlightAware
08:39PM 38.2690 -91.7620 234° Southwest 401 461 38,000  Level FlightAware
08:39PM 38.2320 -91.8280 234° Southwest 403 464 38,000  Level FlightAware
08:40PM 38.1820 -91.9150 234° Southwest 404 465 38,000  Level FlightAware
08:41PM 38.1390 -91.9910 234° Southwest 403 464 38,000  Level FlightAware
08:41PM 38.1020 -92.0560 234° Southwest 403 464 38,000  Level FlightAware
08:42PM 38.0570 -92.1350 234° Southwest 405 466 38,000  Level FlightAware
08:43PM 38.0060 -92.2230 234° Southwest 406 467 38,000  Level FlightAware
08:43PM 37.9650 -92.2950 234° Southwest 408 470 38,000  Level FlightAware
08:44PM 37.9210 -92.3710 234° Southwest 410 472 38,000  Level FlightAware
08:45PM 37.8710 -92.4570 234° Southwest 413 475 38,000  Level FlightAware
08:45PM 37.8260 -92.5350 234° Southwest 414 476 38,000 -360 Level FlightAware
08:46PM 37.7760 -92.6200 233° Southwest 414 476 37,500 -720 Descending FlightAware
08:47PM 37.7280 -92.7020 234° Southwest 415 478 37,000 -780 Descending FlightAware
08:47PM 37.6900 -92.7820 239° Southwest 411 473 36,500 -840 Descending FlightAware
08:48PM 37.6590 -92.8600 243° Southwest 415 478 36,000 -420 Descending FlightAware
08:49PM 37.6200 -92.9560 243° Southwest 415 478 36,000  Level FlightAware
08:49PM 37.5860 -93.0390 243° Southwest 415 478 36,000  Level FlightAware
08:50PM 37.5520 -93.1230 243° Southwest 415 478 36,000  Level FlightAware
08:51PM 37.5170 -93.2080 243° Southwest 415 478 36,000  Level FlightAware
08:51PM 37.4800 -93.2990 243° Southwest 414 476 36,000  Level FlightAware
08:52PM 37.4480 -93.3760 242° Southwest 413 475 36,000  Level FlightAware
08:53PM 37.4110 -93.4670 243° Southwest 412 474 36,000  Level FlightAware
08:53PM 37.3730 -93.5580 242° Southwest 413 475 36,000  Level FlightAware
08:54PM 37.3350 -93.6480 242° Southwest 412 474 36,000  Level FlightAware
08:55PM 37.3000 -93.7340 243° Southwest 411 473 36,000 -840 Level FlightAware
08:56PM 37.2620 -93.8250 242° Southwest 402 463 34,900 -1,680 Descending FlightAware
08:56PM 37.2280 -93.9050 242° Southwest 394 453 33,700 -1,800 Descending FlightAware
08:57PM 37.1980 -93.9890 246° West 390 449 32,500 -1,500 Descending FlightAware
08:58PM 37.1690 -94.0790 248° West 383 441 31,600 -1,080 Descending FlightAware
08:58PM 37.1430 -94.1640 249° West 396 456 31,000 -1,200 Descending FlightAware
08:59PM 37.1120 -94.2630 249° West 391 450 29,900 -1,560 Descending FlightAware
09:00PM 37.0870 -94.3440 249° West 384 442 28,800 -1,920 Descending FlightAware
09:00PM 37.0610 -94.4280 249° West 375 432 27,400 -2,040 Descending FlightAware
09:01PM 37.0340 -94.5140 249° West 382 440 26,000 -1,980 Descending FlightAware
09:02PM 37.0060 -94.6100 250° West 389 448 24,500 -2,100 Descending FlightAware
09:03PM 36.9810 -94.6950 250° West 395 455 23,100 -2,100 Descending FlightAware
09:03PM 36.9560 -94.7800 250° West 399 459 21,700 -1,560 Descending FlightAware
09:04PM 36.9300 -94.8690 250° West 366 421 21,000 -1,380 Descending FlightAware
09:05PM 36.9050 -94.9530 250° West 354 407 19,800 -1,680 Descending FlightAware
09:05PM 36.8830 -95.0280 250° West 346 398 18,700 -1,980 Descending FlightAware
09:06PM 36.8580 -95.1110 249° West 345 397 17,100 -1,440 Descending FlightAware
09:07PM 36.8350 -95.1850 249° West 344 396 16,600 -1,020 Descending FlightAware
09:08PM 36.7830 -95.2590 229° Southwest 346 398 15,400 -2,400 Descending FlightAware
09:08PM 36.7450 -95.3060 225° Southwest 343 395 13,400 -2,880 Descending FlightAware
09:09PM 36.7000 -95.3660 227° Southwest 341 392 12,100 -1,740 Descending FlightAware
09:10PM 36.6540 -95.4260 226° Southwest 327 376 11,000 -780 Descending FlightAware
09:10PM 36.6090 -95.4840 226° Southwest 327 376 11,000 -1,320 Level FlightAware
09:11PM 36.5394 -95.5750 226° Southwest 302 348 8,500 -1,920 Descending Kansas City Center
09:13PM 36.4850 -95.6447 226° Southwest 288 331 7,000 -1,440 Descending Kansas City Center
09:14PM 36.4322 -95.7133 226° Southwest 279 321 5,600 -1,560 Descending Kansas City Center
09:15PM 36.3717 -95.7911 226° Southwest 251 289 3,700 -1,140 Descending Kansas City Center
09:16PM 36.3364 -95.8336 224° Southwest 239 275 3,300 -720 Descending Kansas City Center
09:17PM 36.2933 -95.8717 215° Southwest 200 230 2,400 -1,080 Descending Kansas City Center
09:18PM 36.2447 -95.8781 186° South 160 184 1,200 -900 Descending Kansas City Center
09:19PM 36.2014 -95.8817 184° South 152 175 600 -600 Descending Kansas City Center
09:21PM 36.1984 -95.8881 215° Southwest  Level Estimated
09:28PM 36.1984 -95.8881 215° Southwest  Level Estimated